Airfield :
LOGIN :

Register | Disclaimer

   EN    FR    IT 

 










Legend :    VFR   Marginal VFR   IFR   Intensive IFR   Very Intensive IFR
Visi :
Ceiling :
>= 8 km
>= 3000ft
5 to 8 km
1000 to 3000 ft
1500m to 5 km
500 to 1000 ft
800 to 1500m
200 to 500 ft
< 800m
< 200 ft
Symbols :   Thunderstorms  Fog  Heavy snow  Heavy precipitations  Wind > 20 kt
SIGMETs :     Misc.  Thunderstorms  Icing  Turbulence  Mountain Waves  Volcanic Ashes






- Airport Elevation : 935 ft


EBFS - Florennes

CURRENT METAR :
  • 052114Z AUTO 01007KT 9999 FEW009/// SCT011/// BKN110/// 02/01 Q1041 GRN

EXPIRED METARs :
  • 052055Z AUTO 02010KT 9999 FEW100/// SCT120/// BKN130/// 02/01 Q1040 BLU
  • 052025Z AUTO 36008KT 9999 FEW032/// BKN110/// BKN130/// 03/01 Q1040 BLU
  • 051955Z AUTO 36009KT 9999 FEW016/// SCT034/// BKN110/// 03/00 Q1040 BLU
  • 051934Z AUTO 36009KT 9999 SCT016/// BKN110/// BKN130/// 03/00 Q1040 WHT
  • 051855Z AUTO 36008KT 9999 SCT039/// BKN130/// BKN160/// 03/00 Q1040 BLU
  • 051849Z AUTO 36009KT 9999 SCT039/// BKN120/// BKN150/// 03/M00 Q1040 BLU
  • 051834Z AUTO 01009KT 9999 OVC000/// 03/M00 Q1040 RED
  • 051825Z AUTO 01010KT 9999 FEW039/// BKN110/// BKN140/// 03/M00 Q1040 BLU

TAF TAF EBFS
Valid from the 05 at 19:00 until the 06 at 07:00 UTC


0519/0607 01010KT 9999 SCT030
BECMG 0600/0602 03005KT 5000 BR FEW030
BECMG 0602/0604 3000 BR SCT003 BKN004
TEMPO 0604/0607 0500 FG SCT001 BKN002



MET'MAP, your aeronautical weather chart ! - Copyright ORBIFLY December 2007 - Disclaimer

ORBIFLY MET'MAP TEAM :

Programming & Development : Alexandra Zaïnal
Original concept : Baudouin d'Aumeries
Technical & hardware support : Manuel Goepfert
Assistance : Marc-Olivier Méhu




SOURCES & CREDITS :

   NOAA